Lake Panamoka, New York
Current Conditions -  °F | °C
As of 2:56 AM on Sunday 26 Oct 2014 (Local Time) from KHWV Reporting Station
Overcast Overcast  
Wind Chill: 14°   Ceiling: 8000
Heat Index: 14°   Visibility: 10mi
Dew Point:   Wind: 7mph
Humidity: 70%   Direction: 290°WNW
Pressure: 29.53"   Gusts: NA
Location:  40.8942°N, 72.8763°W
Report Text: KHWV 260656Z AUTO 29006KT 10SM SCT065 OVC080 14/09 A2953 RMK AO2 SLP001 T01440089 TSNO
Loading
Personal Weather Stations






























Interactive Weather Map
Tropical Storm Tracking
New forecast layout! Learn more

10-Day Weather Forecast

Advertisements
Track Severe Weather on mobile